Time;durP1;ratioP1;P1;durP2;ratioP2;P2;SDS_P1;SDS_P2;PMS_P1;PMS_P2;Temp;Humidity;BMP_temperature;BMP_pressure;BME280_temperature;BME280_humidity;BME280_pressure;Samples;Min_cycle;Max_cycle;Signal;HPM_P1;HPM_P2
2022/07/28 00:01:25;;;;;;;7.30;3.77;;;;;;;10.18;69.05;100482.95;2075240;84;21061;-71
2022/07/28 00:04:27;;;;;;;6.20;3.37;;;;;;;10.18;69.05;100482.95;2073651;85;21104;-71
2022/07/28 00:07:31;;;;;;;6.53;3.25;;;;;;;10.16;69.03;100478.28;2074919;85;21024;-70
2022/07/28 00:10:32;;;;;;;5.20;3.90;;;;;;;10.15;68.88;100474.48;2075123;85;21033;-70
2022/07/28 00:13:33;;;;;;;5.47;3.50;;;;;;;10.01;69.01;100476.69;2076048;85;21595;-72
2022/07/28 00:16:34;;;;;;;8.23;3.98;;;;;;;9.94;69.04;100472.16;2074633;85;21021;-71
2022/07/28 00:19:36;;;;;;;4.50;3.00;;;;;;;9.88;69.23;100470.95;2092171;84;21045;-72
2022/07/28 00:22:43;;;;;;;6.62;2.80;;;;;;;9.80;68.91;100472.23;2099881;84;21484;-71
2022/07/28 00:25:44;;;;;;;13.85;4.22;;;;;;;9.72;69.10;100472.98;2096904;84;21033;-71
2022/07/28 00:28:45;;;;;;;5.75;3.10;;;;;;;9.73;69.29;100475.97;2099352;84;21095;-71
2022/07/28 00:31:46;;;;;;;6.25;3.40;;;;;;;9.69;69.32;100478.59;2096648;83;21080;-71
2022/07/28 00:34:49;;;;;;;5.62;2.80;;;;;;;9.71;69.48;100475.28;2096689;84;21008;-71
2022/07/28 00:37:50;;;;;;;5.87;2.45;;;;;;;9.77;69.29;100476.02;2097370;83;21016;-71
2022/07/28 00:41:10;;;;;;;7.15;3.85;;;;;;;9.79;69.11;100480.66;2100334;83;21025;-71
2022/07/28 00:44:11;;;;;;;4.65;3.58;;;;;;;9.71;68.89;100481.91;2100353;84;21025;-71
2022/07/28 00:47:13;;;;;;;5.92;3.72;;;;;;;9.60;68.95;100486.11;2095976;83;21068;-71
2022/07/28 00:50:14;;;;;;;8.08;3.55;;;;;;;9.48;69.09;100480.20;2093453;84;21587;-71
2022/07/28 00:53:16;;;;;;;7.05;2.98;;;;;;;9.46;69.19;100482.66;2097113;84;21069;-71
2022/07/28 00:56:18;;;;;;;3.85;2.60;;;;;;;9.40;69.05;100479.66;2098003;83;21029;-71
2022/07/28 00:59:19;;;;;;;7.60;3.40;;;;;;;9.41;69.12;100479.98;2094774;84;21092;-72
2022/07/28 01:02:20;;;;;;;8.38;4.00;;;;;;;9.46;69.19;100476.04;2095536;83;21595;-71
2022/07/28 01:05:23;;;;;;;30.65;4.50;;;;;;;9.45;69.27;100465.11;2092526;84;22286;-71
2022/07/28 01:08:42;;;;;;;3.35;2.67;;;;;;;9.35;69.52;100471.33;2093044;84;21472;-72
2022/07/28 01:12:24;;;;;;;6.22;3.55;;;;;;;9.32;69.94;100479.57;2078770;84;21049;-71
2022/07/28 01:15:45;;;;;;;7.42;3.40;;;;;;;9.31;70.06;100478.38;2094327;84;20973;-70
2022/07/28 01:19:31;;;;;;;3.83;3.02;;;;;;;9.23;69.75;100482.27;2085367;83;21089;-71
2022/07/28 01:22:41;;;;;;;3.75;2.75;;;;;;;9.19;69.74;100483.89;2074721;84;21013;-71
2022/07/28 01:26:17;;;;;;;2.87;2.62;;;;;;;9.16;69.66;100484.69;2073927;84;22604;-71
2022/07/28 01:29:58;;;;;;;11.73;3.58;;;;;;;9.09;69.62;100475.16;2016842;86;21088;-71
2022/07/28 01:33:07;;;;;;;8.23;3.10;;;;;;;9.09;69.79;100476.98;2025410;85;21057;-72
2022/07/28 01:36:20;;;;;;;6.62;4.22;;;;;;;9.05;69.61;100479.10;2074031;84;21052;-71
2022/07/28 01:39:26;;;;;;;7.53;4.28;;;;;;;8.96;69.59;100483.47;2074018;85;21065;-71
2022/07/28 01:42:34;;;;;;;3.47;3.12;;;;;;;8.88;69.85;100485.19;2072455;85;21582;-71
2022/07/28 01:45:39;;;;;;;6.75;3.40;;;;;;;8.84;69.73;100490.41;2075100;85;21053;-72
2022/07/28 01:48:43;;;;;;;6.30;3.52;;;;;;;8.74;69.90;100489.14;2074202;85;21111;-71
2022/07/28 01:51:47;;;;;;;6.05;2.80;;;;;;;8.74;69.91;100494.44;2071790;85;21069;-71
2022/07/28 01:54:52;;;;;;;6.83;3.22;;;;;;;8.73;69.80;100498.08;2074681;85;20981;-71
2022/07/28 01:57:55;;;;;;;6.85;3.00;;;;;;;8.72;69.80;100496.38;2071052;85;21052;-71
2022/07/28 02:00:59;;;;;;;5.35;3.55;;;;;;;8.74;69.73;100491.80;2072871;84;21101;-72
2022/07/28 02:04:05;;;;;;;5.85;3.67;;;;;;;8.72;69.80;100487.95;2073966;85;21152;-71
2022/07/28 02:07:09;;;;;;;6.10;3.62;;;;;;;8.67;69.77;100491.55;2074912;84;21594;-71
2022/07/28 02:10:16;;;;;;;5.35;3.83;;;;;;;8.61;69.86;100493.92;2076301;84;21037;-71
2022/07/28 02:13:17;;;;;;;6.00;3.98;;;;;;;8.56;69.85;100494.84;2074883;85;21475;-71
2022/07/28 02:16:22;;;;;;;4.53;3.67;;;;;;;8.47;69.87;100497.37;2073844;85;21145;-71
2022/07/28 02:19:25;;;;;;;7.15;4.75;;;;;;;8.45;70.12;100499.34;2082483;84;21096;-71
2022/07/28 02:22:27;;;;;;;6.95;4.10;;;;;;;8.43;70.31;100492.03;2095687;84;21548;-72
2022/07/28 02:25:29;;;;;;;9.35;4.97;;;;;;;8.41;70.58;100488.69;2094015;84;21068;-71
2022/07/28 02:28:30;;;;;;;6.45;4.35;;;;;;;8.39;70.76;100493.31;2092391;83;20985;-71
2022/07/28 02:31:46;;;;;;;5.58;4.00;;;;;;;8.39;70.45;100493.31;2097074;84;21088;-71
2022/07/28 02:34:50;;;;;;;5.47;3.67;;;;;;;8.39;70.37;100494.63;2080719;84;21012;-71
2022/07/28 02:38:09;;;;;;;6.58;4.78;;;;;;;8.31;70.18;100496.63;2095340;84;21056;-71
2022/07/28 02:41:21;;;;;;;7.70;4.75;;;;;;;8.26;70.65;100501.51;2091244;84;21078;-72
2022/07/28 02:44:26;;;;;;;8.40;4.45;;;;;;;8.27;70.62;100504.98;2069116;84;21139;-70
2022/07/28 02:47:31;;;;;;;7.55;4.50;;;;;;;8.17;70.25;100507.66;2094884;84;21036;-73
2022/07/28 02:50:32;;;;;;;7.20;4.08;;;;;;;8.16;71.26;100515.22;2094806;84;21047;-71
2022/07/28 02:53:34;;;;;;;4.60;3.77;;;;;;;8.15;71.02;100522.81;2095123;84;21059;-71
2022/07/28 02:56:36;;;;;;;7.55;5.28;;;;;;;8.15;70.97;100519.34;2095672;84;21044;-70
2022/07/28 02:59:39;;;;;;;6.70;3.85;;;;;;;8.19;71.14;100526.00;2095828;84;21087;-71
2022/07/28 03:02:42;;;;;;;4.47;3.65;;;;;;;8.16;70.89;100523.15;2091628;84;21508;-72
2022/07/28 03:05:44;;;;;;;5.47;4.45;;;;;;;8.16;70.85;100527.61;2092816;84;20993;-71
2022/07/28 03:08:45;;;;;;;5.85;3.72;;;;;;;8.12;70.56;100528.39;2092799;83;21036;-73
2022/07/28 03:11:52;;;;;;;8.05;3.90;;;;;;;8.03;70.44;100530.06;2095341;83;21055;-71
2022/07/28 03:14:53;;;;;;;3.45;2.95;;;;;;;8.03;70.59;100535.84;2093761;84;21067;-71
2022/07/28 03:17:54;;;;;;;3.05;2.58;;;;;;;7.97;70.43;100541.20;2095140;84;21017;-71
2022/07/28 03:20:56;;;;;;;;;;;;;;;7.99;70.71;100547.16;2098277;83;21608;-71
2022/07/28 03:23:57;;;;;;;3.55;3.05;;;;;;;8.00;70.64;100549.34;2098012;84;20172;-72
2022/07/28 03:27:38;;;;;;;5.53;3.20;;;;;;;7.96;70.75;100550.57;2092731;84;21060;-71
2022/07/28 03:30:44;;;;;;;4.80;2.27;;;;;;;7.98;70.70;100552.59;2094209;84;21614;-72
2022/07/28 03:33:47;;;;;;;6.50;2.80;;;;;;;7.96;70.55;100558.01;2094878;83;21666;-71
2022/07/28 03:36:53;;;;;;;3.52;2.65;;;;;;;7.96;70.69;100559.33;2097366;84;20997;-71
2022/07/28 03:39:58;;;;;;;5.15;3.30;;;;;;;8.04;70.85;100559.97;2097510;84;21032;-70
2022/07/28 03:43:05;;;;;;;5.60;3.25;;;;;;;8.05;70.72;100569.55;2099872;84;21068;-72
2022/07/28 03:46:07;;;;;;;5.37;3.12;;;;;;;8.13;70.89;100571.02;2094737;83;21028;-70
2022/07/28 03:49:08;;;;;;;7.35;3.33;;;;;;;8.25;70.80;100581.81;2099560;83;21520;-72
2022/07/28 03:52:09;;;;;;;;;;;;;;;8.48;71.10;100579.72;2100936;83;21060;-73
2022/07/28 03:55:12;;;;;;;8.58;3.35;;;;;;;8.84;71.17;100579.92;2100168;84;20169;-71
2022/07/28 03:58:13;;;;;;;4.20;3.30;;;;;;;9.20;70.91;100582.19;2094103;83;21064;-70
2022/07/28 04:01:14;;;;;;;3.55;3.02;;;;;;;9.62;70.94;100576.88;2097036;83;21005;-71
2022/07/28 04:04:16;;;;;;;4.08;3.25;;;;;;;10.05;70.78;100573.98;2096437;84;21040;-73
2022/07/28 04:07:17;;;;;;;4.30;3.20;;;;;;;10.70;70.42;100561.73;2097009;83;21002;-71
2022/07/28 04:10:20;;;;;;;6.05;3.12;;;;;;;10.70;70.42;100561.73;2098027;83;21045;-73
2022/07/28 04:13:21;;;;;;;11.33;3.52;;;;;;;11.20;69.60;100578.25;2096818;84;21073;-71
2022/07/28 04:16:22;;;;;;;6.80;3.65;;;;;;;11.51;69.36;100583.02;2095919;84;21064;-71
2022/07/28 04:19:24;;;;;;;5.65;3.10;;;;;;;11.94;69.17;100577.16;2086434;83;22219;-73
2022/07/28 04:22:25;;;;;;;6.70;3.60;;;;;;;12.46;68.86;100576.34;2059124;85;21020;-71
2022/07/28 04:25:27;;;;;;;5.53;3.20;;;;;;;12.94;68.30;100576.42;2057657;85;21072;-71
2022/07/28 04:28:28;;;;;;;6.70;3.55;;;;;;;13.38;67.64;100577.30;2059966;85;21041;-71
2022/07/28 04:31:29;;;;;;;6.60;3.92;;;;;;;13.78;67.09;100567.41;2059646;85;21052;-72
2022/07/28 04:34:30;;;;;;;7.12;3.80;;;;;;;14.08;66.70;100567.87;2059832;85;21068;-71
2022/07/28 04:37:31;;;;;;;6.12;3.90;;;;;;;14.52;66.63;100562.34;2058465;85;21009;-72
2022/07/28 04:40:33;;;;;;;6.83;3.98;;;;;;;14.96;66.07;100573.58;2058782;84;20978;-72
2022/07/28 04:43:36;;;;;;;8.55;3.80;;;;;;;15.35;65.87;100567.93;2059145;85;21045;-71
2022/07/28 04:46:37;;;;;;;8.45;3.65;;;;;;;15.83;65.55;100566.13;2057080;85;21415;-71
2022/07/28 04:49:39;;;;;;;7.42;3.90;;;;;;;16.52;64.96;100570.33;2060330;85;21005;-71
2022/07/28 04:52:41;;;;;;;8.23;3.77;;;;;;;17.20;64.50;100571.94;2058551;85;21064;-72
2022/07/28 04:55:42;;;;;;;8.40;3.72;;;;;;;17.75;63.45;100572.44;2059664;85;20997;-71
2022/07/28 04:58:43;;;;;;;6.58;3.87;;;;;;;18.32;62.87;100569.75;2059407;85;21627;-71
2022/07/28 05:01:44;;;;;;;5.62;3.95;;;;;;;18.57;61.64;100573.98;2056893;85;21065;-72
2022/07/28 05:04:45;;;;;;;6.50;3.83;;;;;;;18.90;61.39;100573.14;2063206;84;21049;-72
2022/07/28 05:07:46;;;;;;;4.70;3.50;;;;;;;19.33;60.77;100569.90;2056195;85;21048;-72
2022/07/28 05:10:47;;;;;;;12.63;4.17;;;;;;;19.59;59.84;100561.69;2056339;85;21040;-72
2022/07/28 05:13:48;;;;;;;6.15;3.90;;;;;;;19.85;59.29;100565.30;2054978;85;21488;-72
2022/07/28 05:16:49;;;;;;;8.20;3.90;;;;;;;19.98;58.94;100566.56;2058787;85;21505;-72
2022/07/28 05:19:51;;;;;;;5.37;3.95;;;;;;;20.37;58.37;100561.92;2066916;85;21006;-72
2022/07/28 05:22:56;;;;;;;8.55;4.22;;;;;;;20.62;58.15;100565.16;2076358;85;21108;-73
2022/07/28 05:25:57;;;;;;;7.70;4.55;;;;;;;20.82;57.59;100567.95;2075124;85;21124;-72
2022/07/28 05:28:58;;;;;;;6.55;3.70;;;;;;;21.33;57.21;100574.02;2076497;85;21013;-72
2022/07/28 05:31:59;;;;;;;6.53;3.27;;;;;;;21.88;56.38;100573.94;2075168;84;21022;-72
2022/07/28 05:35:00;;;;;;;5.47;3.72;;;;;;;22.11;55.17;100575.06;2073775;85;21049;-71
2022/07/28 05:38:02;;;;;;;12.18;3.40;;;;;;;22.27;54.94;100578.47;2075368;85;21552;-72
2022/07/28 05:41:05;;;;;;;7.47;4.03;;;;;;;22.47;53.78;100570.53;2073251;85;20982;-72
2022/07/28 05:44:06;;;;;;;5.75;3.60;;;;;;;22.75;53.19;100580.14;2074440;85;21048;-72
2022/07/28 05:47:07;;;;;;;5.17;3.50;;;;;;;22.99;53.11;100580.96;2074849;85;21060;-72
2022/07/28 05:50:09;;;;;;;4.97;3.30;;;;;;;23.14;52.14;100589.11;2075977;85;21061;-72
2022/07/28 05:53:10;;;;;;;5.83;3.40;;;;;;;23.18;51.96;100582.18;2072771;85;21009;-72
2022/07/28 05:56:11;;;;;;;5.85;3.77;;;;;;;23.38;51.54;100583.94;2074349;85;21077;-73
2022/07/28 05:59:13;;;;;;;5.15;2.80;;;;;;;23.77;51.29;100583.37;2074212;85;21021;-72
2022/07/28 06:02:14;;;;;;;4.65;3.02;;;;;;;23.94;50.26;100587.75;2074046;84;21021;-73
2022/07/28 06:05:18;;;;;;;5.62;3.00;;;;;;;24.07;49.22;100592.02;2074504;85;21493;-72
2022/07/28 06:08:19;;;;;;;5.15;2.60;;;;;;;24.13;48.42;100595.12;2073700;85;21028;-73
2022/07/28 06:11:20;;;;;;;4.97;2.67;;;;;;;24.33;47.72;100597.36;2074472;85;21068;-73
2022/07/28 06:14:21;;;;;;;6.03;2.42;;;;;;;24.70;47.48;100588.73;2071180;85;21033;-72
2022/07/28 06:17:22;;;;;;;3.87;2.20;;;;;;;24.94;46.59;100591.23;2074260;85;21040;-72
2022/07/28 06:20:26;;;;;;;5.97;2.42;;;;;;;25.26;46.16;100592.78;2054664;84;21147;-73
2022/07/28 06:23:27;;;;;;;4.17;2.37;;;;;;;25.37;45.04;100585.05;2094222;84;21092;-74
2022/07/28 06:26:28;;;;;;;7.50;2.00;;;;;;;25.61;44.90;100590.19;2065894;84;21047;-72
2022/07/28 06:29:29;;;;;;;6.15;2.58;;;;;;;25.73;44.41;100585.42;2094207;83;21044;-74
2022/07/28 06:32:30;;;;;;;6.00;2.20;;;;;;;25.59;43.98;100592.33;2094409;83;21342;-73
2022/07/28 06:35:32;;;;;;;3.80;2.02;;;;;;;25.58;43.49;100590.16;2096223;84;21032;-72
2022/07/28 06:38:33;;;;;;;4.65;2.08;;;;;;;25.72;43.15;100587.87;2095645;84;21103;-73
2022/07/28 06:41:34;;;;;;;7.90;1.95;;;;;;;26.09;42.70;100602.94;2096399;84;21053;-73
2022/07/28 06:44:36;;;;;;;8.65;2.10;;;;;;;26.18;41.27;100595.66;2093255;83;21064;-73
2022/07/28 06:47:37;;;;;;;9.58;2.30;;;;;;;26.02;41.29;100592.01;2095072;83;22234;-72
2022/07/28 06:50:39;;;;;;;5.03;2.27;;;;;;;26.08;40.91;100597.22;2095797;84;21868;-72
2022/07/28 06:53:40;;;;;;;12.13;2.30;;;;;;;26.23;40.89;100597.08;2068704;84;21001;-72
2022/07/28 06:56:41;;;;;;;5.42;1.98;;;;;;;26.24;39.79;100598.16;2095357;83;21032;-72
2022/07/28 06:59:42;;;;;;;3.17;1.85;;;;;;;26.40;39.87;100597.75;2098457;84;21025;-73
2022/07/28 07:02:45;;;;;;;3.92;2.00;;;;;;;26.39;39.53;100594.22;2090930;83;21033;-73
2022/07/28 07:05:46;;;;;;;4.58;1.98;;;;;;;26.26;38.65;100591.92;2093368;84;21107;-72
2022/07/28 07:08:47;;;;;;;4.05;1.85;;;;;;;26.21;39.33;100594.59;2094104;84;21075;-75
2022/07/28 07:11:48;;;;;;;4.08;1.85;;;;;;;26.51;38.68;100595.42;2095688;84;20969;-71
2022/07/28 07:14:49;;;;;;;6.53;1.98;;;;;;;26.77;38.71;100596.41;2096955;84;21095;-72
2022/07/28 07:17:52;;;;;;;3.58;1.70;;;;;;;26.90;38.37;100595.13;2094641;84;21016;-71
2022/07/28 07:20:56;;;;;;;2.47;1.75;;;;;;;27.00;37.82;100594.35;2095281;83;21108;-73
2022/07/28 07:23:58;;;;;;;2.10;1.37;;;;;;;27.21;37.83;100597.49;2093996;84;21141;-73
2022/07/28 07:26:59;;;;;;;5.95;1.45;;;;;;;27.30;37.03;100594.27;2095948;84;21036;-73
2022/07/28 07:30:00;;;;;;;5.25;1.70;;;;;;;27.35;36.80;100594.29;2097077;84;21009;-75
2022/07/28 07:33:01;;;;;;;3.65;1.35;;;;;;;27.33;36.72;100597.27;2097125;84;21023;-74
2022/07/28 07:36:03;;;;;;;4.12;1.60;;;;;;;26.88;34.90;100606.00;2094075;84;21080;-73
2022/07/28 07:39:04;;;;;;;4.75;1.72;;;;;;;26.52;34.03;100602.49;2093451;84;21048;-72
2022/07/28 07:42:05;;;;;;;3.45;1.70;;;;;;;26.33;35.15;100610.23;2067419;84;21555;-74
2022/07/28 07:45:08;;;;;;;2.33;1.37;;;;;;;26.41;34.98;100613.53;2097151;84;21028;-76
2022/07/28 07:48:10;;;;;;;3.08;1.37;;;;;;;26.37;34.64;100607.25;2093616;84;21386;-72
2022/07/28 07:51:13;;;;;;;5.40;1.15;;;;;;;26.24;34.17;100605.50;2095051;84;21048;-73
2022/07/28 07:54:14;;;;;;;4.65;1.70;;;;;;;26.46;34.17;100604.05;2095770;84;21056;-72
2022/07/28 07:57:15;;;;;;;5.25;1.80;;;;;;;26.12;34.03;100602.95;2096975;84;21044;-71
2022/07/28 08:00:17;;;;;;;4.00;1.30;;;;;;;26.28;33.72;100599.84;2095724;84;20985;-73
2022/07/28 08:03:19;;;;;;;2.22;1.32;;;;;;;26.49;33.84;100600.81;2084701;83;21102;-73
2022/07/28 08:06:20;;;;;;;3.85;1.55;;;;;;;26.40;33.13;100604.55;2092134;84;21029;-73
2022/07/28 08:09:21;;;;;;;3.75;1.70;;;;;;;26.33;33.50;100597.98;2093839;84;21088;-72
2022/07/28 08:12:22;;;;;;;5.15;2.00;;;;;;;26.60;33.03;100597.92;2095680;84;20982;-73
2022/07/28 08:15:24;;;;;;;4.10;1.37;;;;;;;26.26;33.34;100598.73;2094633;83;20997;-72
2022/07/28 08:18:27;;;;;;;2.87;1.65;;;;;;;26.69;33.25;100598.26;2093293;84;21025;-73
2022/07/28 08:21:29;;;;;;;2.60;1.17;;;;;;;27.19;32.78;100588.77;2077990;84;21109;-74
2022/07/28 08:24:30;;;;;;;1.87;1.10;;;;;;;27.15;32.70;100583.55;2073387;85;21100;-72
2022/07/28 08:27:31;;;;;;;3.47;1.47;;;;;;;27.21;32.63;100590.69;2071472;85;21091;-74
2022/07/28 08:30:32;;;;;;;2.45;1.52;;;;;;;27.43;32.63;100591.05;2071432;85;21529;-73
2022/07/28 08:33:34;;;;;;;4.53;1.45;;;;;;;27.56;31.88;100592.44;2073654;85;21571;-72
2022/07/28 08:36:35;;;;;;;6.08;1.22;;;;;;;27.59;32.02;100585.89;2052052;85;21017;-72
2022/07/28 08:39:36;;;;;;;4.50;1.37;;;;;;;27.58;31.74;100578.00;2071898;85;21013;-73
2022/07/28 08:42:49;;;;;;;3.37;1.32;;;;;;;27.65;31.55;100579.91;2072404;85;21057;-71
2022/07/28 08:45:51;;;;;;;5.12;1.47;;;;;;;27.64;31.48;100584.55;2075390;85;21061;-73
2022/07/28 08:48:53;;;;;;;5.53;1.42;;;;;;;27.48;31.28;100578.78;2073596;84;21587;-73
2022/07/28 08:51:57;;;;;;;3.08;1.57;;;;;;;27.29;31.08;100578.47;2052378;85;21482;-71
2022/07/28 08:55:03;;;;;;;4.65;1.60;;;;;;;27.06;31.15;100578.34;2072287;84;21092;-71
2022/07/28 08:58:10;;;;;;;2.20;1.70;;;;;;;26.95;31.08;100575.30;2072798;85;21587;-71
2022/07/28 09:01:12;;;;;;;2.52;1.10;;;;;;;27.16;31.73;100576.23;2071359;86;21116;-71
2022/07/28 09:04:17;;;;;;;3.65;1.50;;;;;;;27.36;31.49;100575.48;2071823;85;21049;-71
2022/07/28 09:07:22;;;;;;;2.83;1.32;;;;;;;27.57;31.48;100569.56;2072722;85;21493;-73
2022/07/28 09:10:23;;;;;;;6.12;1.65;;;;;;;27.76;31.52;100570.67;2075330;84;21079;-73
2022/07/28 09:13:26;;;;;;;4.08;1.35;;;;;;;28.18;31.20;100567.47;2073217;85;21711;-74
2022/07/28 09:16:27;;;;;;;3.83;1.72;;;;;;;28.47;30.82;100568.58;2073063;85;21068;-80
2022/07/28 09:19:29;;;;;;;4.95;1.72;;;;;;;28.63;30.82;100567.99;2074624;85;21554;-74
2022/07/28 09:22:55;;;;;;;7.90;1.52;;;;;;;28.49;30.41;100562.83;2087477;84;21025;-74
2022/07/28 09:26:08;;;;;;;5.95;1.52;;;;;;;28.37;30.29;100561.73;2097667;83;21037;-74
2022/07/28 09:29:09;;;;;;;3.15;1.42;;;;;;;28.01;29.80;100566.37;2091496;83;21137;-75
2022/07/28 09:32:18;;;;;;;2.72;1.35;;;;;;;27.91;30.31;100558.47;2095642;84;21083;-75
2022/07/28 09:35:20;;;;;;;4.55;1.40;;;;;;;28.04;30.17;100555.73;2097396;84;21581;-76
2022/07/28 09:38:25;;;;;;;2.98;1.45;;;;;;;27.67;30.21;100558.12;2096666;84;21013;-77
2022/07/28 09:41:27;;;;;;;2.52;1.40;;;;;;;27.66;30.81;100552.41;2097844;83;21039;-76
2022/07/28 09:44:28;;;;;;;3.85;1.45;;;;;;;27.84;30.53;100556.54;2091650;84;21099;-77
2022/07/28 09:47:31;;;;;;;4.10;1.60;;;;;;;27.45;30.09;100554.28;2098867;84;20989;-79
2022/07/28 09:50:33;;;;;;;4.87;1.50;;;;;;;26.73;30.35;100555.03;2093316;83;21091;-74
2022/07/28 09:53:34;;;;;;;3.15;1.20;;;;;;;26.64;30.53;100552.50;2095305;83;21037;-76
2022/07/28 09:56:37;;;;;;;3.45;1.40;;;;;;;26.54;30.52;100550.00;2094488;84;21047;-74
2022/07/28 09:59:41;;;;;;;5.60;1.50;;;;;;;26.85;30.91;100548.01;2091766;83;21041;-78
2022/07/28 10:02:48;;;;;;;2.98;1.52;;;;;;;27.19;30.95;100544.38;2096579;83;21080;-75
2022/07/28 10:05:49;;;;;;;4.95;1.65;;;;;;;27.62;30.84;100536.33;2092370;83;21104;-75
2022/07/28 10:08:52;;;;;;;2.95;1.47;;;;;;;27.64;30.04;100537.41;2093590;83;20989;-77
2022/07/28 10:12:14;;;;;;;4.35;1.42;;;;;;;27.66;28.54;100543.41;2092719;84;21091;-75
2022/07/28 10:18:39;;;;;;;4.83;1.60;;;;;;;27.35;30.07;100532.98;2093455;83;21076;-75
2022/07/28 10:21:44;;;;;;;2.65;1.47;;;;;;;27.56;30.16;100535.20;2080883;83;21065;-76
2022/07/28 10:24:48;;;;;;;3.17;1.47;;;;;;;27.71;29.62;100527.88;2071341;84;21081;-75
2022/07/28 10:27:52;;;;;;;3.25;1.35;;;;;;;27.77;29.57;100526.53;2050698;84;21081;-77
2022/07/28 10:30:57;;;;;;;2.55;1.30;;;;;;;27.67;28.81;100529.50;2072895;84;20998;-76
2022/07/28 10:34:01;;;;;;;2.87;1.35;;;;;;;27.31;29.53;100529.15;2063771;85;21162;-77
2022/07/28 10:37:07;;;;;;;5.50;1.55;;;;;;;27.24;29.51;100522.05;2071339;84;21076;-77
2022/07/28 10:40:11;;;;;;;3.15;1.40;;;;;;;27.03;29.25;100521.66;2073273;84;21065;-78
2022/07/28 10:43:13;;;;;;;2.87;1.40;;;;;;;26.95;29.40;100524.92;2053548;85;21077;-77
2022/07/28 10:46:15;;;;;;;3.95;1.60;;;;;;;27.03;29.89;100522.51;2073479;84;21173;-77
2022/07/28 10:49:18;;;;;;;3.75;1.52;;;;;;;27.16;29.18;100516.31;2072907;84;21045;-78
2022/07/28 10:52:20;;;;;;;5.65;1.60;;;;;;;27.10;29.88;100515.44;2072970;84;21044;-77
2022/07/28 10:55:48;;;;;;;3.55;1.45;;;;;;;27.43;29.68;100519.66;2073246;85;21092;-77
2022/07/28 10:59:04;;;;;;;4.03;1.42;;;;;;;27.32;28.47;100515.83;2071562;85;21108;-77
2022/07/28 11:02:06;;;;;;;2.45;1.30;;;;;;;27.17;29.13;100515.21;2072439;84;21072;-75
2022/07/28 11:05:39;;;;;;;4.22;1.95;;;;;;;27.21;29.46;100517.14;2073267;84;21069;-79
2022/07/28 11:08:40;;;;;;;4.08;1.65;;;;;;;27.40;29.45;100507.94;2060614;85;21037;-76
2022/07/28 11:11:52;;;;;;;2.85;1.42;;;;;;;27.64;29.58;100513.69;2072014;84;21089;-77
2022/07/28 11:14:54;;;;;;;3.08;1.50;;;;;;;27.77;29.22;100512.90;2073667;84;21073;-77
2022/07/28 11:18:05;;;;;;;3.95;1.35;;;;;;;27.69;28.17;100510.16;2073058;85;21084;-77
2022/07/28 11:21:08;;;;;;;4.22;1.30;;;;;;;27.15;29.37;100511.37;2070872;85;21085;-77
2022/07/28 11:24:09;;;;;;;11.85;1.40;;;;;;;27.11;29.61;100510.26;2073104;84;20989;-77
2022/07/28 11:27:10;;;;;;;4.55;1.42;;;;;;;27.08;29.75;100512.16;2074685;84;21644;-77
2022/07/28 11:30:34;;;;;;;5.20;1.67;;;;;;;26.73;28.92;100514.20;2074302;84;21436;-77
2022/07/28 11:33:53;;;;;;;5.42;1.27;;;;;;;26.46;29.31;100511.55;2071806;84;21044;-77
2022/07/28 11:37:06;;;;;;;3.22;1.50;;;;;;;26.65;29.98;100510.61;2071966;84;21469;-78
2022/07/28 11:40:30;;;;;;;3.67;1.45;;;;;;;27.11;30.69;100503.45;2072594;84;21585;-78
2022/07/28 11:43:33;;;;;;;7.22;2.12;;;;;;;27.19;30.20;100497.52;2067850;84;21009;-80
2022/07/28 11:46:35;;;;;;;2.45;1.42;;;;;;;27.30;29.68;100501.64;2051638;84;21081;-77
2022/07/28 11:49:36;;;;;;;4.67;1.47;;;;;;;27.37;30.11;100497.58;2072983;84;21084;-78
2022/07/28 11:52:55;;;;;;;2.62;1.35;;;;;;;27.36;30.20;100497.84;2073091;84;21092;-78
2022/07/28 11:55:57;;;;;;;3.22;1.40;;;;;;;27.28;29.74;100499.17;2069234;84;21591;-77
2022/07/28 11:59:06;;;;;;;5.22;1.55;;;;;;;27.01;29.45;100496.62;2072520;84;21044;-78
2022/07/28 12:02:09;;;;;;;5.67;1.37;;;;;;;27.07;29.65;100489.30;2067664;84;21477;-77
2022/07/28 12:05:14;;;;;;;4.05;1.60;;;;;;;26.80;28.10;100488.91;2051677;86;21410;-78
2022/07/28 12:08:15;;;;;;;3.55;1.37;;;;;;;26.76;29.88;100488.63;2072971;84;21063;-80
2022/07/28 12:11:18;;;;;;;4.40;1.50;;;;;;;26.78;28.80;100487.83;2073512;84;21104;-78
2022/07/28 12:14:21;;;;;;;3.95;1.40;;;;;;;26.58;29.20;100486.34;2074781;85;21111;-78
2022/07/28 12:17:33;;;;;;;2.60;1.40;;;;;;;26.78;29.31;100487.83;2074193;85;21058;-78
2022/07/28 12:20:40;;;;;;;2.85;1.57;;;;;;;26.64;29.22;100481.75;2073342;84;21060;-77
2022/07/28 12:23:41;;;;;;;3.05;1.40;;;;;;;26.30;28.97;100474.75;2072118;84;21005;-77
2022/07/28 12:26:44;;;;;;;4.17;1.80;;;;;;;26.29;29.15;100470.92;2073859;84;21065;-76
2022/07/28 12:30:00;;;;;;;3.47;1.57;;;;;;;26.35;29.09;100469.86;2073632;84;21013;-77
2022/07/28 12:33:21;;;;;;;5.95;1.70;;;;;;;26.37;29.30;100473.14;2073137;84;21062;-77
2022/07/28 12:36:25;;;;;;;2.37;1.50;;;;;;;26.61;29.11;100469.52;2072951;84;21084;-77
2022/07/28 12:39:26;;;;;;;4.45;1.55;;;;;;;26.85;28.97;100465.80;2072510;85;21062;-80
2022/07/28 12:42:31;;;;;;;7.30;1.77;;;;;;;27.11;28.53;100466.69;2071805;84;21171;-77
2022/07/28 12:45:32;;;;;;;2.45;1.30;;;;;;;27.19;28.79;100459.94;2071284;85;21080;-77
2022/07/28 12:48:33;;;;;;;3.80;1.70;;;;;;;27.19;28.79;100464.02;2073449;84;20982;-78
2022/07/28 12:51:44;;;;;;;4.45;1.40;;;;;;;27.27;28.29;100456.69;2050390;85;21013;-78
2022/07/28 12:54:45;;;;;;;2.25;1.40;;;;;;;27.19;28.51;100453.94;2070821;86;21065;-77
2022/07/28 12:57:47;;;;;;;6.25;1.65;;;;;;;27.23;29.00;100451.52;2073812;85;21061;-77
2022/07/28 13:00:50;;;;;;;5.25;1.40;;;;;;;27.19;28.78;100448.49;2073360;84;21052;-77
2022/07/28 13:03:51;;;;;;;5.97;1.52;;;;;;;26.93;28.87;100450.86;2073412;84;20993;-79
2022/07/28 13:06:55;;;;;;;2.62;1.15;;;;;;;26.98;28.72;100442.70;2073736;85;21159;-77
2022/07/28 13:10:04;;;;;;;4.72;2.52;;;;;;;27.03;28.64;100439.45;2073206;85;21048;-77
2022/07/28 13:13:06;;;;;;;3.17;1.30;;;;;;;27.08;29.37;100445.98;2072773;85;21111;-78
2022/07/28 13:16:20;;;;;;;2.52;1.40;;;;;;;27.16;28.78;100439.50;2072508;84;22282;-77
2022/07/28 13:19:21;;;;;;;2.77;1.25;;;;;;;26.80;28.37;100432.55;2072902;84;21018;-78
2022/07/28 13:22:28;;;;;;;3.75;1.27;;;;;;;26.43;28.56;100442.71;2061184;84;21065;-77
2022/07/28 13:25:30;;;;;;;3.50;1.50;;;;;;;25.98;28.45;100443.52;2099795;84;21060;-77
2022/07/28 13:28:31;;;;;;;4.65;1.60;;;;;;;25.81;28.68;100444.99;2097102;84;21490;-77
2022/07/28 13:31:36;;;;;;;4.55;1.62;;;;;;;25.72;28.55;100431.06;2093901;83;22167;-77
2022/07/28 13:34:37;;;;;;;5.58;1.60;;;;;;;25.76;29.12;100428.64;2095975;83;21048;-77
2022/07/28 13:37:38;;;;;;;3.42;1.37;;;;;;;25.96;29.00;100424.47;2068419;83;21619;-76
2022/07/28 13:40:40;;;;;;;7.47;1.45;;;;;;;25.97;29.37;100426.13;2093097;83;20981;-77
2022/07/28 13:43:41;;;;;;;4.12;1.40;;;;;;;25.77;29.26;100426.77;2092769;83;21083;-76
2022/07/28 13:46:43;;;;;;;4.42;1.20;;;;;;;25.73;28.75;100430.52;2070607;83;21091;-77
2022/07/28 13:49:44;;;;;;;2.65;1.20;;;;;;;25.71;29.51;100421.29;2091089;83;21516;-74
2022/07/28 13:52:46;;;;;;;4.53;1.50;;;;;;;25.93;29.87;100418.50;2095726;83;21032;-76
2022/07/28 13:55:51;;;;;;;5.67;1.50;;;;;;;26.10;30.18;100415.62;2090966;83;21062;-74
2022/07/28 13:58:50;;;;;;;5.87;1.50;;;;;;;26.14;30.11;100418.08;2093578;83;21024;-76
2022/07/28 14:01:54;;;;;;;4.37;1.50;;;;;;;26.13;29.98;100415.64;2097186;83;21057;-75
2022/07/28 14:04:55;;;;;;;3.15;1.20;;;;;;;26.04;29.05;100423.44;2093040;84;20997;-76
2022/07/28 14:07:56;;;;;;;2.70;1.22;;;;;;;25.82;29.65;100411.31;2096894;84;20965;-75
2022/07/28 14:10:59;;;;;;;1.85;1.20;;;;;;;25.69;29.17;100422.63;2093888;83;21032;-75
2022/07/28 14:14:00;;;;;;;2.72;1.27;;;;;;;25.57;29.40;100413.30;2091497;84;21017;-75
2022/07/28 14:17:01;;;;;;;3.05;1.45;;;;;;;25.48;29.56;100407.52;2095358;83;21084;-76
2022/07/28 14:20:04;;;;;;;4.03;1.40;;;;;;;25.48;29.70;100405.31;2096319;84;21092;-75
2022/07/28 14:23:05;;;;;;;2.00;1.27;;;;;;;25.47;29.47;100410.48;2092096;84;21584;-75